Ahoskie, North Carolina
Current Conditions -  °F | °C
As of 3:55 AM on Wednesday 22 Oct 2014 (Local Time) from KASJ Reporting Station
Scattered Clouds Scattered Clouds  
Wind Chill: 51°   Ceiling: Unl
Heat Index: 51°   Visibility: 10mi
Dew Point: 49°   Wind: 0mph
Humidity: 94%   Direction: NA
Pressure: 29.87"   Gusts: NA
Location:  36.29°N, 76.98°W
Report Text: KASJ 220755Z AUTO 00000KT 10SM SCT034 SCT110 11/10 A2987 RMK AO2 P0001 T01060097
Loading
Personal Weather Stations






























Interactive Weather Map
Tropical Storm Tracking
New forecast layout! Learn more

10-Day Weather Forecast

Advertisements
Track Severe Weather on mobile